Аэропорт: Черкассы. Черкассы

ICAO: UKKE

METAR:
2018/07/02 11:36
UKKE 021136Z 21006G11MPS 9999 FEW///CB OVC200 21/08 Q1015 R32/CLRD70
METAR:
Информация по данной станции не доступна